Report METAR

 

LIPX - Villafranca(Cv/M, Italy
Distanza dalla stazione: S 60km
Dati ricevuti: Sun, 05/07/2020 08:50
Sereno
Sereno
 Vento da Variabile
Vento: Variabile 4 km/h
Temperatura: 24°C
Punto Rugiada: 17°C
Umidità: 65%
Barometro: 1017 hPa
Sommario: Sereno
VisibilitÓ: superiore a 10 km
2020/07/05 06:50 LIPX 050650Z VRB02KT CAVOK 24/17 Q1017
LIPB - Bolzano(Civ/It-A, Italy
Distanza dalla stazione: NNE 68km
Dati ricevuti: Sun, 05/07/2020 08:50
Sereno
Sereno
 Vento da Variabile
Vento: Variabile 2 km/h
Temperatura: 22°C
Punto Rugiada: 14°C
Umidità: 61%
Barometro: 1019 hPa
Sommario: Sereno
VisibilitÓ: superiore a 10 km
2020/07/05 06:50 LIPB 050650Z VRB01KT CAVOK 22/14 Q1019
 
LIPO - Brescia/Montichi, Italy
Distanza dalla stazione: SO 71km
Dati ricevuti: Sun, 05/07/2020 08:50
Sereno
Sereno
 Vento da E
Vento: E 15 km/h
Temperatura: 25°C
Punto Rugiada: 17°C
Umidità: 61%
Barometro: 1017 hPa
Sommario: Sereno
VisibilitÓ: superiore a 10 km
2020/07/05 06:50 LIPO 050650Z 08008KT CAVOK 25/17 Q1017
LIPL - Ghedi (it-Afb), Italy
Distanza dalla stazione: SO 75km
Dati ricevuti: Sun, 05/07/2020 08:55
Sereno
Sereno
 Vento da E
Vento: E 11 km/h
Temperatura: 25°C
Punto Rugiada: 18°C
Umidità: 65%
Barometro: 1017 hPa
Sommario: Sereno
VisibilitÓ: superiore a 10 km
2020/07/05 06:55 LIPL 050655Z 08006KT CAVOK 25/18 Q1017 RMK SKC VIS MIN 9999 WIND THR31 08005KT WIND THR13 09005KT BLU
 
LIVR - Rolle Pass, Italy
Distanza dalla stazione: ENE 78km
Dati ricevuti: Sun, 05/07/2020 08:55
Sereno
Sereno
 Vento da O
Vento: O 9 km/h
Temperatura: 12°C
Punto Rugiada: -2°C
Umidità: 38%
Barometro: 1026 hPa
Sommario: Sereno
VisibilitÓ: superiore a 10 km
2020/07/05 06:55 LIVR 050655Z 27005KT CAVOK 12/M02 Q1026 RMK SKC MON LIB VIS MIN 9999
LIPS - Istrana (it-Afb), Italy
Distanza dalla stazione: ESE 96km
Dati ricevuti: Sun, 05/07/2020 08:55
Sereno
Sereno
 Vento da Variabile
Vento: Variabile 0 km/h
Temperatura: 26°C
Punto Rugiada: 19°C
Umidità: 65%
Barometro: 1017 hPa
Sommario: Sereno
VisibilitÓ: superiore a 10 km
2020/07/05 06:55 LIPS 050655Z /////KT CAVOK 26/19 Q1017 RMK SKC VIS MIN 9999 WIND THR26 01006KT WIND THR08 07007KT BLU
 
LIME - Bergamo/Orio Ser, Italy
Distanza dalla stazione: OSO 99km
Dati ricevuti: Sun, 05/07/2020 09:20
Sereno
Sereno
 Vento da Variabile
Vento: Variabile 4 km/h
Temperatura: 25°C
Punto Rugiada: 17°C
Umidità: 61%
Barometro: 1018 hPa
Sommario: Sereno
VisibilitÓ: superiore a 10 km
2020/07/05 07:20 LIME 050720Z VRB02KT CAVOK 25/17 Q1018 NOSIG
LIPH - Treviso(Civ/It-A, Italy
Distanza dalla stazione: ESE 103km
Dati ricevuti: Sun, 05/07/2020 09:20
Sereno
Sereno
 Vento da NE
Vento: NE 11 km/h
Temperatura: 26°C
Punto Rugiada: 15°C
Umidità: 51%
Barometro: 1018 hPa
Sommario: Sereno
VisibilitÓ: superiore a 10 km
2020/07/05 07:20 LIPH 050720Z 05006KT CAVOK 26/15 Q1018
 
LSZS - Samedan, Switzerland
Distanza dalla stazione: NO 104km
Dati ricevuti: Sun, 05/07/2020 09:20
Sereno
Sereno
 Vento da Variabile
Vento: Variabile 2 km/h
Temperatura: 12°C
Punto Rugiada: 2°C
Umidità: 51%
Barometro: 1025 hPa
Sommario: Sereno
VisibilitÓ: superiore a 10 km
2020/07/05 07:20 LSZS 050720Z VRB01KT CAVOK 12/02 Q1025 RMK D
LIVE - Resia Pass, Italy
Distanza dalla stazione: NNO 108km
Dati ricevuti: Sun, 05/07/2020 08:55
Sereno
Sereno
 Vento da NNE
Vento: NNE 9 km/h
Temperatura: 12°C
Punto Rugiada: 5°C
Umidità: 63%
Barometro: 1023 hPa
Sommario: Sereno
VisibilitÓ: superiore a 10 km
2020/07/05 06:55 LIVE 050655Z 02005KT CAVOK 12/05 Q1023 RMK SKC VIS MIN 9999
 
LIPZ - Venezia/Tessera, Italy
Distanza dalla stazione: ESE 122km
Dati ricevuti: Sun, 05/07/2020 09:20
Sereno
Sereno
 Vento da NE
Vento: NE 11 km/h
Temperatura: 25°C
Punto Rugiada: 16°C
Umidità: 57%
Barometro: 1017 hPa
Sommario: Sereno
VisibilitÓ: superiore a 10 km
2020/07/05 07:20 LIPZ 050720Z 05006KT CAVOK 25/16 Q1017 NOSIG
LIMP - Parma, Italy
Distanza dalla stazione: SSO 132km
Dati ricevuti: Sun, 05/07/2020 08:50
Sereno
Sereno
 Vento da Variabile
Vento: Variabile 4 km/h
Temperatura: 23°C
Punto Rugiada: 18°C
Umidità: 74%
Barometro: 1017 hPa
Sommario: Sereno
VisibilitÓ: superiore a 10 km
2020/07/05 06:50 LIMP 050650Z VRB02KT CAVOK 23/18 Q1017
 
LIVD - Dobbiaco, Italy
Distanza dalla stazione: NE 134km
Dati ricevuti: Sun, 05/07/2020 08:55
Sereno
Sereno
 Vento da Variabile
Vento: Variabile 0 km/h
Temperatura: 17°C
Punto Rugiada: 11°C
Umidità: 68%
Barometro: 1024 hPa
Sommario: Sereno
VisibilitÓ: superiore a 10 km
2020/07/05 06:55 LIVD 050655Z /////KT CAVOK 17/11 Q1024 RMK SKC VIS MIN 9999 BLU
LIPF - Ferrara (aut), Italy
Distanza dalla stazione: SSE 135km
Dati ricevuti: Sun, 05/07/2020 08:55
Sereno
Sereno
 Vento da Variabile
Vento: Variabile 0 km/h
Temperatura: 23°C
Punto Rugiada: 19°C
Umidità: 78%
Barometro: 1017 hPa
Sommario: Sereno
VisibilitÓ: superiore a 10 km
2020/07/05 06:55 LIPF 050655Z /////KT CAVOK 23/19 Q1017
 
LIML - Milano/Linate, Italy
Distanza dalla stazione: OSO 137km
Dati ricevuti: Sun, 05/07/2020 09:20
Sereno
Sereno
 Vento da E
Vento: E 6 km/h
Temperatura: 25°C
Punto Rugiada: 19°C
Umidità: 69%
Barometro: 1018 hPa
Sommario: Sereno
VisibilitÓ: superiore a 10 km
2020/07/05 07:20 LIML 050720Z 08003KT 010V140 CAVOK 25/19 Q1018 NOSIG
LIMS - Piacenza (it-Afb, Italy
Distanza dalla stazione: SO 145km
Dati ricevuti: Sun, 05/07/2020 08:55
Sereno
Sereno
 Vento da Variabile
Vento: Variabile 0 km/h
Temperatura: 23°C
Punto Rugiada: 19°C
Umidità: 78%
Barometro: 1016 hPa
Sommario: Sereno
VisibilitÓ: superiore a 10 km
2020/07/05 06:55 LIMS 050655Z /////KT CAVOK 23/19 Q1016